sensor_id;sensor_type;location;lat;lon;timestamp;temperature;humidity
23991;DHT22;12205;50.600;4.608;2023-03-03T00:00:44;2.30;99.90
23991;DHT22;12205;50.600;4.608;2023-03-03T00:03:13;2.30;99.90
23991;DHT22;12205;50.600;4.608;2023-03-03T00:05:43;2.20;99.90
23991;DHT22;12205;50.600;4.608;2023-03-03T00:08:11;2.30;99.90
23991;DHT22;12205;50.600;4.608;2023-03-03T00:10:38;2.20;99.90
23991;DHT22;12205;50.600;4.608;2023-03-03T00:13:06;2.30;99.90
23991;DHT22;12205;50.600;4.608;2023-03-03T00:15:40;2.30;99.90
23991;DHT22;12205;50.600;4.608;2023-03-03T00:18:12;2.20;99.90
23991;DHT22;12205;50.600;4.608;2023-03-03T00:20:47;2.20;99.90
23991;DHT22;12205;50.600;4.608;2023-03-03T00:23:27;2.20;99.90
23991;DHT22;12205;50.600;4.608;2023-03-03T00:25:56;2.20;99.90
23991;DHT22;12205;50.600;4.608;2023-03-03T00:28:26;2.10;99.90
23991;DHT22;12205;50.600;4.608;2023-03-03T00:30:55;2.10;99.90
23991;DHT22;12205;50.600;4.608;2023-03-03T00:33:25;2.10;99.90
23991;DHT22;12205;50.600;4.608;2023-03-03T00:35:58;2.10;99.90
23991;DHT22;12205;50.600;4.608;2023-03-03T00:38:36;2.10;99.90
23991;DHT22;12205;50.600;4.608;2023-03-03T00:41:03;2.10;99.90
23991;DHT22;12205;50.600;4.608;2023-03-03T00:43:40;2.10;99.90
23991;DHT22;12205;50.600;4.608;2023-03-03T00:46:08;2.00;99.90
23991;DHT22;12205;50.600;4.608;2023-03-03T00:48:40;2.00;99.90
23991;DHT22;12205;50.600;4.608;2023-03-03T00:51:10;1.90;99.90
23991;DHT22;12205;50.600;4.608;2023-03-03T00:53:47;1.90;99.90
23991;DHT22;12205;50.600;4.608;2023-03-03T00:56:14;1.90;99.90
23991;DHT22;12205;50.600;4.608;2023-03-03T00:58:41;1.90;99.90
23991;DHT22;12205;50.600;4.608;2023-03-03T01:01:11;1.80;99.90
23991;DHT22;12205;50.600;4.608;2023-03-03T01:03:43;1.80;99.90
23991;DHT22;12205;50.600;4.608;2023-03-03T01:06:10;1.80;99.90
23991;DHT22;12205;50.600;4.608;2023-03-03T01:08:38;1.70;99.90
23991;DHT22;12205;50.600;4.608;2023-03-03T01:11:07;1.70;99.90
23991;DHT22;12205;50.600;4.608;2023-03-03T01:13:39;1.70;99.90
23991;DHT22;12205;50.600;4.608;2023-03-03T01:16:08;1.60;99.90
23991;DHT22;12205;50.600;4.608;2023-03-03T01:18:36;1.60;99.90
23991;DHT22;12205;50.600;4.608;2023-03-03T01:21:04;1.60;99.90
23991;DHT22;12205;50.600;4.608;2023-03-03T01:23:31;1.60;99.90
23991;DHT22;12205;50.600;4.608;2023-03-03T01:25:58;1.50;99.90
23991;DHT22;12205;50.600;4.608;2023-03-03T01:28:26;1.60;99.90
23991;DHT22;12205;50.600;4.608;2023-03-03T01:30:53;1.50;99.90
23991;DHT22;12205;50.600;4.608;2023-03-03T01:33:20;1.50;99.90
23991;DHT22;12205;50.600;4.608;2023-03-03T01:35:47;1.50;99.90
23991;DHT22;12205;50.600;4.608;2023-03-03T01:38:14;1.60;99.90
23991;DHT22;12205;50.600;4.608;2023-03-03T01:40:41;1.60;99.90
23991;DHT22;12205;50.600;4.608;2023-03-03T01:43:10;1.60;99.90
23991;DHT22;12205;50.600;4.608;2023-03-03T01:45:44;1.60;99.90
23991;DHT22;12205;50.600;4.608;2023-03-03T01:48:55;1.60;99.90
23991;DHT22;12205;50.600;4.608;2023-03-03T01:51:28;1.70;99.90
23991;DHT22;12205;50.600;4.608;2023-03-03T01:53:58;1.70;99.90
23991;DHT22;12205;50.600;4.608;2023-03-03T01:56:26;1.80;99.90
23991;DHT22;12205;50.600;4.608;2023-03-03T01:58:55;1.80;99.90
23991;DHT22;12205;50.600;4.608;2023-03-03T02:01:27;1.80;99.90
23991;DHT22;12205;50.600;4.608;2023-03-03T02:03:57;1.80;99.90
23991;DHT22;12205;50.600;4.608;2023-03-03T02:06:25;1.80;99.90
23991;DHT22;12205;50.600;4.608;2023-03-03T02:08:56;1.80;99.90
23991;DHT22;12205;50.600;4.608;2023-03-03T02:11:29;1.90;99.90
23991;DHT22;12205;50.600;4.608;2023-03-03T02:13:58;1.90;99.90
23991;DHT22;12205;50.600;4.608;2023-03-03T02:16:26;2.00;99.90
23991;DHT22;12205;50.600;4.608;2023-03-03T02:18:53;2.00;99.90
23991;DHT22;12205;50.600;4.608;2023-03-03T02:21:22;2.10;99.90
23991;DHT22;12205;50.600;4.608;2023-03-03T02:23:52;2.10;99.90
23991;DHT22;12205;50.600;4.608;2023-03-03T02:26:28;2.10;99.90
23991;DHT22;12205;50.600;4.608;2023-03-03T02:29:01;2.20;99.90
23991;DHT22;12205;50.600;4.608;2023-03-03T02:31:29;2.20;99.90
23991;DHT22;12205;50.600;4.608;2023-03-03T02:33:58;2.20;99.90
23991;DHT22;12205;50.600;4.608;2023-03-03T02:36:26;2.30;99.90
23991;DHT22;12205;50.600;4.608;2023-03-03T02:38:58;2.30;99.90
23991;DHT22;12205;50.600;4.608;2023-03-03T02:41:31;2.30;99.90
23991;DHT22;12205;50.600;4.608;2023-03-03T02:44:02;2.30;99.90
23991;DHT22;12205;50.600;4.608;2023-03-03T02:46:32;2.30;99.90
23991;DHT22;12205;50.600;4.608;2023-03-03T02:49:01;2.30;99.90
23991;DHT22;12205;50.600;4.608;2023-03-03T02:51:28;2.30;99.90
23991;DHT22;12205;50.600;4.608;2023-03-03T02:53:55;2.30;99.90
23991;DHT22;12205;50.600;4.608;2023-03-03T02:56:24;2.30;99.90
23991;DHT22;12205;50.600;4.608;2023-03-03T02:58:53;2.30;99.90
23991;DHT22;12205;50.600;4.608;2023-03-03T03:01:20;2.30;99.90
23991;DHT22;12205;50.600;4.608;2023-03-03T03:03:49;2.30;99.90
23991;DHT22;12205;50.600;4.608;2023-03-03T03:06:19;2.30;99.90
23991;DHT22;12205;50.600;4.608;2023-03-03T03:08:46;2.40;99.90
23991;DHT22;12205;50.600;4.608;2023-03-03T03:11:13;2.30;99.90
23991;DHT22;12205;50.600;4.608;2023-03-03T03:13:40;2.30;99.90
23991;DHT22;12205;50.600;4.608;2023-03-03T03:16:10;2.30;99.90
23991;DHT22;12205;50.600;4.608;2023-03-03T03:18:37;2.30;99.90
23991;DHT22;12205;50.600;4.608;2023-03-03T03:21:05;2.30;99.90
23991;DHT22;12205;50.600;4.608;2023-03-03T03:23:33;2.30;99.90
23991;DHT22;12205;50.600;4.608;2023-03-03T03:26:01;2.30;99.90
23991;DHT22;12205;50.600;4.608;2023-03-03T03:28:28;2.40;99.90
23991;DHT22;12205;50.600;4.608;2023-03-03T03:30:56;2.40;99.90
23991;DHT22;12205;50.600;4.608;2023-03-03T03:33:24;2.40;99.90
23991;DHT22;12205;50.600;4.608;2023-03-03T03:35:53;2.40;99.90
23991;DHT22;12205;50.600;4.608;2023-03-03T03:38:21;2.30;99.90
23991;DHT22;12205;50.600;4.608;2023-03-03T03:40:48;2.30;99.90
23991;DHT22;12205;50.600;4.608;2023-03-03T03:43:16;2.30;99.90
23991;DHT22;12205;50.600;4.608;2023-03-03T03:45:43;2.30;99.90
23991;DHT22;12205;50.600;4.608;2023-03-03T03:48:12;2.30;99.90
23991;DHT22;12205;50.600;4.608;2023-03-03T03:50:41;2.20;99.90
23991;DHT22;12205;50.600;4.608;2023-03-03T03:53:08;2.20;99.90
23991;DHT22;12205;50.600;4.608;2023-03-03T03:55:36;2.20;99.90
23991;DHT22;12205;50.600;4.608;2023-03-03T03:58:03;2.20;99.90
23991;DHT22;12205;50.600;4.608;2023-03-03T04:00:30;2.20;99.90
23991;DHT22;12205;50.600;4.608;2023-03-03T04:02:59;2.30;99.90
23991;DHT22;12205;50.600;4.608;2023-03-03T04:05:27;2.30;99.90
23991;DHT22;12205;50.600;4.608;2023-03-03T04:07:56;2.30;99.90
23991;DHT22;12205;50.600;4.608;2023-03-03T04:10:23;2.30;99.90
23991;DHT22;12205;50.600;4.608;2023-03-03T04:12:50;2.30;99.90
23991;DHT22;12205;50.600;4.608;2023-03-03T04:15:17;2.40;99.90
23991;DHT22;12205;50.600;4.608;2023-03-03T04:17:44;2.30;99.90
23991;DHT22;12205;50.600;4.608;2023-03-03T04:20:12;2.30;99.90
23991;DHT22;12205;50.600;4.608;2023-03-03T04:22:42;2.30;99.90
23991;DHT22;12205;50.600;4.608;2023-03-03T04:25:11;2.30;99.90
23991;DHT22;12205;50.600;4.608;2023-03-03T04:27:41;2.30;99.90
23991;DHT22;12205;50.600;4.608;2023-03-03T04:30:11;2.30;99.90
23991;DHT22;12205;50.600;4.608;2023-03-03T04:32:41;2.30;99.90
23991;DHT22;12205;50.600;4.608;2023-03-03T04:35:11;2.20;99.90
23991;DHT22;12205;50.600;4.608;2023-03-03T04:37:41;2.10;99.90
23991;DHT22;12205;50.600;4.608;2023-03-03T04:40:09;2.10;99.90
23991;DHT22;12205;50.600;4.608;2023-03-03T04:42:40;2.00;99.90
23991;DHT22;12205;50.600;4.608;2023-03-03T04:45:09;1.90;99.90
23991;DHT22;12205;50.600;4.608;2023-03-03T04:47:37;1.90;99.90
23991;DHT22;12205;50.600;4.608;2023-03-03T04:50:04;1.90;99.90
23991;DHT22;12205;50.600;4.608;2023-03-03T04:52:32;1.90;99.90
23991;DHT22;12205;50.600;4.608;2023-03-03T04:55:00;2.00;99.90
23991;DHT22;12205;50.600;4.608;2023-03-03T04:57:28;2.00;99.90
23991;DHT22;12205;50.600;4.608;2023-03-03T04:59:56;1.90;99.90
23991;DHT22;12205;50.600;4.608;2023-03-03T05:02:23;1.90;99.90
23991;DHT22;12205;50.600;4.608;2023-03-03T05:04:50;1.80;99.90
23991;DHT22;12205;50.600;4.608;2023-03-03T05:07:18;1.80;99.90
23991;DHT22;12205;50.600;4.608;2023-03-03T05:09:45;1.80;99.90
23991;DHT22;12205;50.600;4.608;2023-03-03T05:12:12;1.70;99.90
23991;DHT22;12205;50.600;4.608;2023-03-03T05:14:39;1.70;99.90
23991;DHT22;12205;50.600;4.608;2023-03-03T05:17:07;1.70;99.90
23991;DHT22;12205;50.600;4.608;2023-03-03T05:19:34;1.70;99.90
23991;DHT22;12205;50.600;4.608;2023-03-03T05:22:01;1.70;99.90
23991;DHT22;12205;50.600;4.608;2023-03-03T05:24:28;1.60;99.90
23991;DHT22;12205;50.600;4.608;2023-03-03T05:26:55;1.60;99.90
23991;DHT22;12205;50.600;4.608;2023-03-03T05:29:22;1.50;99.90
23991;DHT22;12205;50.600;4.608;2023-03-03T05:31:49;1.40;99.90
23991;DHT22;12205;50.600;4.608;2023-03-03T05:34:17;1.40;99.90
23991;DHT22;12205;50.600;4.608;2023-03-03T05:36:44;1.40;99.90
23991;DHT22;12205;50.600;4.608;2023-03-03T05:39:11;1.40;99.90
23991;DHT22;12205;50.600;4.608;2023-03-03T05:41:38;1.40;99.90
23991;DHT22;12205;50.600;4.608;2023-03-03T05:44:05;1.40;99.90
23991;DHT22;12205;50.600;4.608;2023-03-03T05:46:32;1.40;99.90
23991;DHT22;12205;50.600;4.608;2023-03-03T05:48:59;1.40;99.90
23991;DHT22;12205;50.600;4.608;2023-03-03T05:51:27;1.40;99.90
23991;DHT22;12205;50.600;4.608;2023-03-03T05:53:54;1.30;99.90
23991;DHT22;12205;50.600;4.608;2023-03-03T05:56:21;1.40;99.90
23991;DHT22;12205;50.600;4.608;2023-03-03T05:58:48;1.40;99.90
23991;DHT22;12205;50.600;4.608;2023-03-03T06:01:15;1.40;99.90
23991;DHT22;12205;50.600;4.608;2023-03-03T06:03:42;1.40;99.90
23991;DHT22;12205;50.600;4.608;2023-03-03T06:06:09;1.40;99.90
23991;DHT22;12205;50.600;4.608;2023-03-03T06:08:38;1.40;99.90
23991;DHT22;12205;50.600;4.608;2023-03-03T06:11:05;1.30;99.90
23991;DHT22;12205;50.600;4.608;2023-03-03T06:13:32;1.30;99.90
23991;DHT22;12205;50.600;4.608;2023-03-03T06:15:59;1.30;99.90
23991;DHT22;12205;50.600;4.608;2023-03-03T06:18:26;1.30;99.90
23991;DHT22;12205;50.600;4.608;2023-03-03T06:20:53;1.20;99.90
23991;DHT22;12205;50.600;4.608;2023-03-03T06:23:21;1.20;99.90
23991;DHT22;12205;50.600;4.608;2023-03-03T06:25:49;1.20;99.90
23991;DHT22;12205;50.600;4.608;2023-03-03T06:28:17;1.10;99.90
23991;DHT22;12205;50.600;4.608;2023-03-03T06:30:44;1.10;99.90
23991;DHT22;12205;50.600;4.608;2023-03-03T06:33:11;1.10;99.90
23991;DHT22;12205;50.600;4.608;2023-03-03T06:35:38;1.10;99.90
23991;DHT22;12205;50.600;4.608;2023-03-03T06:38:05;1.10;99.90
23991;DHT22;12205;50.600;4.608;2023-03-03T06:40:32;1.10;99.90
23991;DHT22;12205;50.600;4.608;2023-03-03T06:43:00;1.20;99.90
23991;DHT22;12205;50.600;4.608;2023-03-03T06:45:28;1.20;99.90
23991;DHT22;12205;50.600;4.608;2023-03-03T06:47:55;1.10;99.90
23991;DHT22;12205;50.600;4.608;2023-03-03T06:50:22;1.10;99.90
23991;DHT22;12205;50.600;4.608;2023-03-03T06:52:49;1.00;99.90
23991;DHT22;12205;50.600;4.608;2023-03-03T06:55:25;0.90;99.90
23991;DHT22;12205;50.600;4.608;2023-03-03T06:57:52;1.00;99.90
23991;DHT22;12205;50.600;4.608;2023-03-03T07:00:23;1.00;99.90
23991;DHT22;12205;50.600;4.608;2023-03-03T07:02:53;1.10;99.90
23991;DHT22;12205;50.600;4.608;2023-03-03T07:05:25;1.10;99.90
23991;DHT22;12205;50.600;4.608;2023-03-03T07:07:53;1.10;99.90
23991;DHT22;12205;50.600;4.608;2023-03-03T07:10:21;1.10;99.90
23991;DHT22;12205;50.600;4.608;2023-03-03T07:12:50;1.10;99.90
23991;DHT22;12205;50.600;4.608;2023-03-03T07:15:19;1.10;99.90
23991;DHT22;12205;50.600;4.608;2023-03-03T07:17:51;1.10;99.90
23991;DHT22;12205;50.600;4.608;2023-03-03T07:20:23;1.10;99.90
23991;DHT22;12205;50.600;4.608;2023-03-03T07:22:53;1.20;99.90
23991;DHT22;12205;50.600;4.608;2023-03-03T07:25:21;1.20;99.90
23991;DHT22;12205;50.600;4.608;2023-03-03T07:27:55;1.20;99.90
23991;DHT22;12205;50.600;4.608;2023-03-03T07:30:26;1.20;99.90
23991;DHT22;12205;50.600;4.608;2023-03-03T07:32:55;1.20;99.90
23991;DHT22;12205;50.600;4.608;2023-03-03T07:35:36;1.20;99.90
23991;DHT22;12205;50.600;4.608;2023-03-03T07:38:14;1.20;99.90
23991;DHT22;12205;50.600;4.608;2023-03-03T07:40:47;1.20;99.90
23991;DHT22;12205;50.600;4.608;2023-03-03T07:46:15;1.20;99.90
23991;DHT22;12205;50.600;4.608;2023-03-03T07:48:49;1.10;99.90
23991;DHT22;12205;50.600;4.608;2023-03-03T07:51:18;1.10;99.90
23991;DHT22;12205;50.600;4.608;2023-03-03T07:53:49;1.10;99.90
23991;DHT22;12205;50.600;4.608;2023-03-03T07:56:20;1.10;99.90
23991;DHT22;12205;50.600;4.608;2023-03-03T07:58:53;1.10;99.90
23991;DHT22;12205;50.600;4.608;2023-03-03T08:01:30;1.20;99.90
23991;DHT22;12205;50.600;4.608;2023-03-03T08:04:10;1.20;99.90
23991;DHT22;12205;50.600;4.608;2023-03-03T08:06:43;1.20;99.90
23991;DHT22;12205;50.600;4.608;2023-03-03T08:09:23;1.20;99.90
23991;DHT22;12205;50.600;4.608;2023-03-03T08:12:10;1.10;99.90
23991;DHT22;12205;50.600;4.608;2023-03-03T08:14:54;1.10;99.90
23991;DHT22;12205;50.600;4.608;2023-03-03T08:17:23;1.10;99.90
23991;DHT22;12205;50.600;4.608;2023-03-03T08:20:02;1.20;99.90
23991;DHT22;12205;50.600;4.608;2023-03-03T08:22:56;1.20;99.90
23991;DHT22;12205;50.600;4.608;2023-03-03T08:25:23;1.20;99.90
23991;DHT22;12205;50.600;4.608;2023-03-03T08:27:50;1.10;99.90
23991;DHT22;12205;50.600;4.608;2023-03-03T08:30:17;1.10;99.90
23991;DHT22;12205;50.600;4.608;2023-03-03T08:32:44;1.30;99.90
23991;DHT22;12205;50.600;4.608;2023-03-03T08:35:13;1.20;99.90
23991;DHT22;12205;50.600;4.608;2023-03-03T08:37:40;1.30;99.90
23991;DHT22;12205;50.600;4.608;2023-03-03T08:40:07;1.30;99.90
23991;DHT22;12205;50.600;4.608;2023-03-03T08:42:35;1.30;99.90
23991;DHT22;12205;50.600;4.608;2023-03-03T08:45:02;1.30;99.90
23991;DHT22;12205;50.600;4.608;2023-03-03T08:47:29;1.30;99.90
23991;DHT22;12205;50.600;4.608;2023-03-03T08:49:56;1.30;99.90
23991;DHT22;12205;50.600;4.608;2023-03-03T08:52:24;1.30;99.90
23991;DHT22;12205;50.600;4.608;2023-03-03T08:54:51;1.30;99.90
23991;DHT22;12205;50.600;4.608;2023-03-03T08:57:18;1.30;99.90
23991;DHT22;12205;50.600;4.608;2023-03-03T08:59:45;1.30;99.90
23991;DHT22;12205;50.600;4.608;2023-03-03T09:02:12;1.40;99.90
23991;DHT22;12205;50.600;4.608;2023-03-03T09:04:39;1.40;99.90
23991;DHT22;12205;50.600;4.608;2023-03-03T09:07:06;1.40;99.90
23991;DHT22;12205;50.600;4.608;2023-03-03T09:09:34;1.40;99.90
23991;DHT22;12205;50.600;4.608;2023-03-03T09:12:05;1.40;99.90
23991;DHT22;12205;50.600;4.608;2023-03-03T09:14:40;1.40;99.90
23991;DHT22;12205;50.600;4.608;2023-03-03T09:17:15;1.40;99.90
23991;DHT22;12205;50.600;4.608;2023-03-03T09:19:49;1.40;99.90
23991;DHT22;12205;50.600;4.608;2023-03-03T09:22:18;1.50;99.90
23991;DHT22;12205;50.600;4.608;2023-03-03T09:24:48;1.60;99.90
23991;DHT22;12205;50.600;4.608;2023-03-03T09:27:18;1.70;99.90
23991;DHT22;12205;50.600;4.608;2023-03-03T09:29:52;1.70;99.90
23991;DHT22;12205;50.600;4.608;2023-03-03T09:32:32;1.60;99.90
23991;DHT22;12205;50.600;4.608;2023-03-03T09:35:21;1.70;99.90
23991;DHT22;12205;50.600;4.608;2023-03-03T09:38:01;1.80;99.90
23991;DHT22;12205;50.600;4.608;2023-03-03T09:40:48;1.80;99.90
23991;DHT22;12205;50.600;4.608;2023-03-03T09:43:22;1.70;99.90
23991;DHT22;12205;50.600;4.608;2023-03-03T09:46:03;1.80;99.90
23991;DHT22;12205;50.600;4.608;2023-03-03T09:48:47;1.90;99.90
23991;DHT22;12205;50.600;4.608;2023-03-03T09:51:33;1.80;99.90
23991;DHT22;12205;50.600;4.608;2023-03-03T09:54:12;1.80;99.90
23991;DHT22;12205;50.600;4.608;2023-03-03T09:56:48;1.90;99.90
23991;DHT22;12205;50.600;4.608;2023-03-03T09:59:31;1.90;99.90
23991;DHT22;12205;50.600;4.608;2023-03-03T10:02:14;2.00;99.90
23991;DHT22;12205;50.600;4.608;2023-03-03T10:04:55;2.00;99.90
23991;DHT22;12205;50.600;4.608;2023-03-03T10:07:42;2.10;99.90
23991;DHT22;12205;50.600;4.608;2023-03-03T10:10:17;2.10;99.90
23991;DHT22;12205;50.600;4.608;2023-03-03T10:12:57;2.20;99.90
23991;DHT22;12205;50.600;4.608;2023-03-03T10:15:32;2.20;99.90
23991;DHT22;12205;50.600;4.608;2023-03-03T10:18:10;2.30;99.90
23991;DHT22;12205;50.600;4.608;2023-03-03T10:20:46;2.40;99.90
23991;DHT22;12205;50.600;4.608;2023-03-03T10:23:23;2.40;99.90
23991;DHT22;12205;50.600;4.608;2023-03-03T10:26:19;2.40;99.90
23991;DHT22;12205;50.600;4.608;2023-03-03T10:29:04;2.40;99.90
23991;DHT22;12205;50.600;4.608;2023-03-03T10:31:49;2.40;99.90
23991;DHT22;12205;50.600;4.608;2023-03-03T10:34:27;2.40;99.90
23991;DHT22;12205;50.600;4.608;2023-03-03T10:37:05;2.40;99.90
23991;DHT22;12205;50.600;4.608;2023-03-03T10:39:47;2.40;99.90
23991;DHT22;12205;50.600;4.608;2023-03-03T10:42:31;2.50;99.90
23991;DHT22;12205;50.600;4.608;2023-03-03T10:45:16;2.60;99.90
23991;DHT22;12205;50.600;4.608;2023-03-03T10:51:00;2.70;99.90
23991;DHT22;12205;50.600;4.608;2023-03-03T10:53:34;2.70;99.90
23991;DHT22;12205;50.600;4.608;2023-03-03T10:56:14;2.80;99.90
23991;DHT22;12205;50.600;4.608;2023-03-03T10:59:00;2.80;99.90
23991;DHT22;12205;50.600;4.608;2023-03-03T11:01:42;2.90;99.90
23991;DHT22;12205;50.600;4.608;2023-03-03T11:04:33;3.00;99.90
23991;DHT22;12205;50.600;4.608;2023-03-03T11:07:10;3.00;99.90
23991;DHT22;12205;50.600;4.608;2023-03-03T11:09:48;3.20;99.90
23991;DHT22;12205;50.600;4.608;2023-03-03T11:12:25;3.20;99.90
23991;DHT22;12205;50.600;4.608;2023-03-03T11:15:04;3.30;99.90
23991;DHT22;12205;50.600;4.608;2023-03-03T11:17:50;3.40;99.90
23991;DHT22;12205;50.600;4.608;2023-03-03T11:20:26;3.50;99.90
23991;DHT22;12205;50.600;4.608;2023-03-03T11:23:03;3.50;99.90
23991;DHT22;12205;50.600;4.608;2023-03-03T11:25:45;3.60;99.90
23991;DHT22;12205;50.600;4.608;2023-03-03T11:28:23;3.70;99.90
23991;DHT22;12205;50.600;4.608;2023-03-03T11:31:02;3.80;99.90
23991;DHT22;12205;50.600;4.608;2023-03-03T11:33:39;3.80;99.90
23991;DHT22;12205;50.600;4.608;2023-03-03T11:36:17;3.70;99.90
23991;DHT22;12205;50.600;4.608;2023-03-03T11:38:50;3.80;99.90
23991;DHT22;12205;50.600;4.608;2023-03-03T11:41:25;3.90;99.90
23991;DHT22;12205;50.600;4.608;2023-03-03T11:43:58;3.90;99.90
23991;DHT22;12205;50.600;4.608;2023-03-03T11:46:33;3.90;99.90
23991;DHT22;12205;50.600;4.608;2023-03-03T11:49:05;3.90;99.90
23991;DHT22;12205;50.600;4.608;2023-03-03T11:51:40;3.90;99.90
23991;DHT22;12205;50.600;4.608;2023-03-03T11:54:14;3.90;99.90
23991;DHT22;12205;50.600;4.608;2023-03-03T11:56:48;3.80;99.90
23991;DHT22;12205;50.600;4.608;2023-03-03T11:59:32;3.80;99.90
23991;DHT22;12205;50.600;4.608;2023-03-03T12:02:12;3.90;99.90
23991;DHT22;12205;50.600;4.608;2023-03-03T12:04:50;3.90;99.90
23991;DHT22;12205;50.600;4.608;2023-03-03T12:07:22;4.00;99.90
23991;DHT22;12205;50.600;4.608;2023-03-03T12:10:08;4.00;99.90
23991;DHT22;12205;50.600;4.608;2023-03-03T12:12:45;4.10;99.90
23991;DHT22;12205;50.600;4.608;2023-03-03T12:15:18;4.20;99.90
23991;DHT22;12205;50.600;4.608;2023-03-03T12:20:54;4.20;99.90
23991;DHT22;12205;50.600;4.608;2023-03-03T12:23:38;4.30;99.90
23991;DHT22;12205;50.600;4.608;2023-03-03T12:26:18;4.30;99.90
23991;DHT22;12205;50.600;4.608;2023-03-03T12:28:51;4.40;99.90
23991;DHT22;12205;50.600;4.608;2023-03-03T12:31:23;4.50;99.90
23991;DHT22;12205;50.600;4.608;2023-03-03T12:34:02;4.50;99.90
23991;DHT22;12205;50.600;4.608;2023-03-03T12:36:44;4.40;99.90
23991;DHT22;12205;50.600;4.608;2023-03-03T12:39:23;4.40;99.90
23991;DHT22;12205;50.600;4.608;2023-03-03T12:42:02;4.50;99.90
23991;DHT22;12205;50.600;4.608;2023-03-03T12:44:37;4.50;99.90
23991;DHT22;12205;50.600;4.608;2023-03-03T12:47:13;4.40;99.90
23991;DHT22;12205;50.600;4.608;2023-03-03T12:49:45;4.40;99.90
23991;DHT22;12205;50.600;4.608;2023-03-03T12:52:24;4.40;99.90
23991;DHT22;12205;50.600;4.608;2023-03-03T12:54:59;4.40;99.90
23991;DHT22;12205;50.600;4.608;2023-03-03T12:57:38;4.60;99.90
23991;DHT22;12205;50.600;4.608;2023-03-03T13:00:17;4.70;99.90
23991;DHT22;12205;50.600;4.608;2023-03-03T13:02:53;4.70;99.90
23991;DHT22;12205;50.600;4.608;2023-03-03T13:05:26;4.80;99.90
23991;DHT22;12205;50.600;4.608;2023-03-03T13:08:11;4.80;99.90
23991;DHT22;12205;50.600;4.608;2023-03-03T13:10:54;4.90;99.90
23991;DHT22;12205;50.600;4.608;2023-03-03T13:13:26;5.00;99.90
23991;DHT22;12205;50.600;4.608;2023-03-03T13:16:00;5.00;99.90
23991;DHT22;12205;50.600;4.608;2023-03-03T13:18:33;5.00;99.90
23991;DHT22;12205;50.600;4.608;2023-03-03T13:21:10;5.10;99.90
23991;DHT22;12205;50.600;4.608;2023-03-03T13:23:47;5.00;99.90
23991;DHT22;12205;50.600;4.608;2023-03-03T13:26:19;5.00;99.90
23991;DHT22;12205;50.600;4.608;2023-03-03T13:28:55;5.00;99.90
23991;DHT22;12205;50.600;4.608;2023-03-03T13:31:30;5.00;99.90
23991;DHT22;12205;50.600;4.608;2023-03-03T13:34:00;5.10;99.90
23991;DHT22;12205;50.600;4.608;2023-03-03T13:36:29;5.20;99.90
23991;DHT22;12205;50.600;4.608;2023-03-03T13:39:05;5.20;99.90
23991;DHT22;12205;50.600;4.608;2023-03-03T13:41:44;5.20;99.90
23991;DHT22;12205;50.600;4.608;2023-03-03T13:44:16;5.20;99.90
23991;DHT22;12205;50.600;4.608;2023-03-03T13:46:53;5.10;99.90
23991;DHT22;12205;50.600;4.608;2023-03-03T13:49:35;5.20;99.90
23991;DHT22;12205;50.600;4.608;2023-03-03T13:52:11;5.20;99.90
23991;DHT22;12205;50.600;4.608;2023-03-03T13:54:48;5.10;99.90
23991;DHT22;12205;50.600;4.608;2023-03-03T13:57:25;5.00;99.90
23991;DHT22;12205;50.600;4.608;2023-03-03T14:00:04;5.00;99.90
23991;DHT22;12205;50.600;4.608;2023-03-03T14:02:42;5.10;99.90
23991;DHT22;12205;50.600;4.608;2023-03-03T14:05:22;5.20;99.90
23991;DHT22;12205;50.600;4.608;2023-03-03T14:07:54;5.10;99.90
23991;DHT22;12205;50.600;4.608;2023-03-03T14:10:26;5.10;99.90
23991;DHT22;12205;50.600;4.608;2023-03-03T14:12:59;5.20;99.90
23991;DHT22;12205;50.600;4.608;2023-03-03T14:15:30;5.30;99.90
23991;DHT22;12205;50.600;4.608;2023-03-03T14:18:02;5.30;99.90
23991;DHT22;12205;50.600;4.608;2023-03-03T14:20:42;5.40;99.90
23991;DHT22;12205;50.600;4.608;2023-03-03T14:23:13;5.50;99.90
23991;DHT22;12205;50.600;4.608;2023-03-03T14:25:53;5.60;99.90
23991;DHT22;12205;50.600;4.608;2023-03-03T14:28:24;5.70;99.90
23991;DHT22;12205;50.600;4.608;2023-03-03T14:30:53;5.80;99.90
23991;DHT22;12205;50.600;4.608;2023-03-03T14:33:30;5.90;99.90
23991;DHT22;12205;50.600;4.608;2023-03-03T14:36:04;6.00;99.90
23991;DHT22;12205;50.600;4.608;2023-03-03T14:38:37;6.10;99.90
23991;DHT22;12205;50.600;4.608;2023-03-03T14:41:11;6.30;99.90
23991;DHT22;12205;50.600;4.608;2023-03-03T14:43:41;6.50;99.90
23991;DHT22;12205;50.600;4.608;2023-03-03T14:46:21;6.70;99.90
23991;DHT22;12205;50.600;4.608;2023-03-03T14:49:03;7.60;99.90
23991;DHT22;12205;50.600;4.608;2023-03-03T14:51:33;9.30;99.90
23991;DHT22;12205;50.600;4.608;2023-03-03T14:54:07;10.30;99.90
23991;DHT22;12205;50.600;4.608;2023-03-03T14:56:52;11.50;99.90
23991;DHT22;12205;50.600;4.608;2023-03-03T14:59:23;12.10;99.90
23991;DHT22;12205;50.600;4.608;2023-03-03T15:01:56;12.60;99.90
23991;DHT22;12205;50.600;4.608;2023-03-03T15:04:39;13.00;99.90
23991;DHT22;12205;50.600;4.608;2023-03-03T15:07:14;14.00;99.90
23991;DHT22;12205;50.600;4.608;2023-03-03T15:09:53;14.30;99.90
23991;DHT22;12205;50.600;4.608;2023-03-03T15:12:21;14.00;99.90
23991;DHT22;12205;50.600;4.608;2023-03-03T15:14:50;13.40;99.90
23991;DHT22;12205;50.600;4.608;2023-03-03T15:17:23;12.70;99.90
23991;DHT22;12205;50.600;4.608;2023-03-03T15:19:54;12.20;99.90
23991;DHT22;12205;50.600;4.608;2023-03-03T15:22:45;12.70;99.90
23991;DHT22;12205;50.600;4.608;2023-03-03T15:25:15;13.20;99.90
23991;DHT22;12205;50.600;4.608;2023-03-03T15:27:50;13.70;99.90
23991;DHT22;12205;50.600;4.608;2023-03-03T15:30:23;14.50;99.90
23991;DHT22;12205;50.600;4.608;2023-03-03T15:32:57;15.10;99.90
23991;DHT22;12205;50.600;4.608;2023-03-03T15:35:30;15.50;99.90
23991;DHT22;12205;50.600;4.608;2023-03-03T15:38:06;15.70;99.90
23991;DHT22;12205;50.600;4.608;2023-03-03T15:40:42;15.70;99.90
23991;DHT22;12205;50.600;4.608;2023-03-03T15:43:17;15.80;99.90
23991;DHT22;12205;50.600;4.608;2023-03-03T15:45:52;15.60;99.90
23991;DHT22;12205;50.600;4.608;2023-03-03T15:48:41;15.30;99.90
23991;DHT22;12205;50.600;4.608;2023-03-03T15:51:19;15.30;99.90
23991;DHT22;12205;50.600;4.608;2023-03-03T15:54:12;15.50;99.90
23991;DHT22;12205;50.600;4.608;2023-03-03T15:56:51;15.40;99.90
23991;DHT22;12205;50.600;4.608;2023-03-03T15:59:30;15.40;99.90
23991;DHT22;12205;50.600;4.608;2023-03-03T16:02:14;15.20;99.90
23991;DHT22;12205;50.600;4.608;2023-03-03T16:04:44;14.90;99.90
23991;DHT22;12205;50.600;4.608;2023-03-03T16:07:22;14.70;99.90
23991;DHT22;12205;50.600;4.608;2023-03-03T16:10:00;14.40;99.90
23991;DHT22;12205;50.600;4.608;2023-03-03T16:12:38;14.30;99.90
23991;DHT22;12205;50.600;4.608;2023-03-03T16:15:27;14.30;99.90
23991;DHT22;12205;50.600;4.608;2023-03-03T16:18:06;14.20;99.90
23991;DHT22;12205;50.600;4.608;2023-03-03T16:20:44;14.00;99.90
23991;DHT22;12205;50.600;4.608;2023-03-03T16:23:30;14.10;99.90
23991;DHT22;12205;50.600;4.608;2023-03-03T16:26:09;14.10;99.90
23991;DHT22;12205;50.600;4.608;2023-03-03T16:28:49;14.00;99.90